sim
Sign-in with your pilot id or email,
or register
Callsign
Passwort

Schedule Details

Flight Number: OEO1513
Departure: Berlin Tegel Airport (EDDT) at 05:35
Arrival: Munich Airport (EDDM) at 06:50

Weather Information
Getting current METAR information for EDDT 211150Z 13007KT 090V180 CAVOK 23/09 Q1017 NOSIG
Getting current METAR information for EDDM 211150Z 04004KT 330V110 CAVOK 22/13 Q1016 NOSIG

Schedule Frequency

Route Map